Startpagina
METAR-TAF:

METAR-TAF

Vliegvelden :

Caracas, Venezuela

Aeropuerto Internacional de Maiquetía Simón Bolívar

breedte: 10-36N, lengte: 066-59W, hoogte: 43 m

Actueel weer

Dit bericht is 22 minuten geleden gemaakt, om 23:00 UTC
Wind 3 kt uit het noordoosten
Temperatuur 27°C
Vochtigheid 74%
Druk 1010 hPa
Zicht 10 km of meer
Verspreide wolken op 1600 ft

METAR: SVMI 192300Z 05003KT 9999 SCT016 27/22 Q1010

Tijdstip: 19:22 (23:22 UTC)

Verwachting

Dit bericht is 7 uur en het 22 minuten geleden gemaakt, om 16:00 UTC
Verwachting geldig van 18 om 18 UTC tot 19 om 18 UTC
Wind 7 kt uit het oosten
Zicht 10 km of meer
Weinig wolken op 1600 ft
Wijzigt naar
van 18 om 19 UTC tot 18 om 23 UTC
Wind 10 kt uit het oosten
Verspreide wolken op 1600 ft

TAF: SVMI 191600Z 1818/1918 09007KT 9999 FEW016 TX33/19Z TN24/09Z BECMG 1819/1823 09010KT SCT016

Waarnemingen en weersverwachtingen van meer dan 4000 vliegvelden (METAR en TAF).

De beschikbare stations zijn de gele en rode punten op de kaart.

Ga met uw muis naar het station om de naam te zien.

Klik dan om waarnemingen en weersverwachtingen te zien.

kaart wijzigen: klik op de groene knoppen met een zwart kruis om in te zoomen, op de groene knop met een streepje om uit te zoomen of op de groene pijlen voor aangrenzende kaarten.


METAR-TAF: